Greenford, United Kingdom
Current Conditions -  °F | °C
As of 2:50 PM on Thursday 30 Oct 2014 (Local Time) from EGWU Reporting Station
Broken Clouds Broken Clouds  
Wind Chill: 64°   Ceiling: 1600
Heat Index: 64°   Visibility: 6mi
Dew Point: 59°   Wind: 2mph
Humidity: 83%   Direction: 250°WSW
Pressure: 30.06"   Gusts: NA
Location:  51.54°N, 0.34°W
Report Text: EGWU 301450Z 25002KT 9999 BKN016 BKN020 18/15 Q1018 WHT TEMPO FEW020
Loading
Personal Weather Stations






























Interactive Weather Map
Tropical Storm Tracking
New forecast layout! Learn more

10-Day Weather Forecast

Advertisements
Track Severe Weather on mobile